Time;durP1;ratioP1;P1;durP2;ratioP2;P2;SDS_P1;SDS_P2;PMS_P1;PMS_P2;Temp;Humidity;BMP_temperature;BMP_pressure;BME280_temperature;BME280_humidity;BME280_pressure;Samples;Min_cycle;Max_cycle;Signal;HPM_P1;HPM_P2
2024/01/08 00:00:33;;;;;;;2.13;1.60;;;;;;;;;;5043013;28;20045;-82
2024/01/08 00:02:59;;;;;;;2.72;1.60;;;;;;;;;;5045848;28;20053;-81
2024/01/08 00:05:27;;;;;;;2.08;1.80;;;;;;;;;;5045678;28;20049;-82
2024/01/08 00:07:53;;;;;;;3.13;1.67;;;;;;;;;;5040770;28;20045;-82
2024/01/08 00:10:20;;;;;;;2.35;1.40;;;;;;;;;;5042169;28;20049;-81
2024/01/08 00:12:46;;;;;;;2.80;1.80;;;;;;;;;;5044580;28;20051;-81
2024/01/08 00:15:13;;;;;;;2.78;1.80;;;;;;;;;;5040317;28;20045;-83
2024/01/08 00:17:39;;;;;;;3.45;1.92;;;;;;;;;;5042622;28;20045;-82
2024/01/08 00:20:07;;;;;;;1.90;1.73;;;;;;;;;;5045143;28;20045;-82
2024/01/08 00:22:34;;;;;;;2.20;1.70;;;;;;;;;;5044178;28;20053;-82
2024/01/08 00:25:01;;;;;;;4.43;2.00;;;;;;;;;;5041322;28;20519;-82
2024/01/08 00:27:27;;;;;;;2.38;1.80;;;;;;;;;;5047707;28;20516;-82
2024/01/08 00:29:53;;;;;;;2.53;1.85;;;;;;;;;;5036325;28;20053;-83
2024/01/08 00:32:20;;;;;;;2.55;2.08;;;;;;;;;;5044662;28;20284;-82
2024/01/08 00:34:46;;;;;;;1.90;1.60;;;;;;;;;;5041406;28;20045;-82
2024/01/08 00:37:13;;;;;;;2.50;1.80;;;;;;;;;;5040789;28;20050;-82
2024/01/08 00:39:40;;;;;;;2.08;1.70;;;;;;;;;;5042246;28;20203;-82
2024/01/08 00:42:07;;;;;;;2.95;1.73;;;;;;;;;;5041143;28;20049;-82
2024/01/08 00:44:33;;;;;;;2.55;1.80;;;;;;;;;;5041673;28;20059;-82
2024/01/08 00:46:59;;;;;;;1.88;1.48;;;;;;;;;;5039949;28;20050;-82
2024/01/08 00:49:26;;;;;;;3.13;1.50;;;;;;;;;;5040821;28;20052;-82
2024/01/08 00:51:52;;;;;;;3.22;1.70;;;;;;;;;;5038949;28;20049;-82
2024/01/08 00:54:19;;;;;;;4.03;1.95;;;;;;;;;;5043103;28;20164;-82
2024/01/08 00:56:47;;;;;;;2.45;1.60;;;;;;;;;;5045218;28;20041;-82
2024/01/08 00:59:13;;;;;;;2.25;1.73;;;;;;;;;;5047774;28;20530;-82
2024/01/08 01:01:40;;;;;;;2.20;1.70;;;;;;;;;;5051190;28;20045;-81
2024/01/08 01:04:06;;;;;;;3.13;1.60;;;;;;;;;;5053812;28;20072;-81
2024/01/08 01:06:32;;;;;;;1.60;1.40;;;;;;;;;;5058391;28;20049;-81
2024/01/08 01:08:59;;;;;;;3.47;1.42;;;;;;;;;;5054515;28;20191;-81
2024/01/08 01:11:25;;;;;;;2.67;1.80;;;;;;;;;;5054627;28;20045;-81
2024/01/08 01:13:53;;;;;;;1.58;1.38;;;;;;;;;;5055520;28;20170;-81
2024/01/08 01:16:20;;;;;;;1.30;1.20;;;;;;;;;;5051351;28;20436;-81
2024/01/08 01:18:47;;;;;;;1.85;1.30;;;;;;;;;;5041904;28;20574;-82
2024/01/08 01:21:20;;;;;;;1.20;1.10;;;;;;;;;;5040334;28;20054;-81
2024/01/08 01:23:46;;;;;;;;;;;;;;;;;;5043003;28;20049;-81
2024/01/08 01:26:12;;;;;;;1.65;1.38;;;;;;;;;;5036982;28;19921;-81
2024/01/08 01:28:39;;;;;;;3.50;1.52;;;;;;;;;;5041657;28;20052;-82
2024/01/08 01:31:07;;;;;;;2.22;1.45;;;;;;;;;;5037108;28;20052;-81
2024/01/08 01:33:33;;;;;;;1.42;1.25;;;;;;;;;;5042607;28;20416;-82
2024/01/08 01:35:59;;;;;;;2.08;1.35;;;;;;;;;;5036839;28;20049;-81
2024/01/08 01:38:26;;;;;;;2.80;1.67;;;;;;;;;;5035145;28;20050;-81
2024/01/08 01:40:52;;;;;;;3.63;1.27;;;;;;;;;;5038988;28;20053;-82
2024/01/08 01:43:20;;;;;;;1.83;1.30;;;;;;;;;;5040425;28;20481;-82
2024/01/08 01:45:46;;;;;;;1.50;1.40;;;;;;;;;;5042468;28;20045;-81
2024/01/08 01:48:14;;;;;;;1.25;1.15;;;;;;;;;;5037163;28;20045;-82
2024/01/08 01:50:40;;;;;;;2.30;1.42;;;;;;;;;;5041814;28;20051;-81
2024/01/08 01:53:07;;;;;;;1.63;1.30;;;;;;;;;;5043309;28;20074;-81
2024/01/08 01:55:33;;;;;;;1.88;1.35;;;;;;;;;;5042204;28;20047;-82
2024/01/08 01:58:00;;;;;;;2.65;1.70;;;;;;;;;;5039375;28;20049;-81
2024/01/08 02:00:26;;;;;;;1.45;1.10;;;;;;;;;;5039869;28;20045;-81
2024/01/08 02:02:53;;;;;;;1.65;1.55;;;;;;;;;;5038807;28;20046;-82
2024/01/08 02:05:20;;;;;;;1.85;1.30;;;;;;;;;;5041833;28;20045;-82
2024/01/08 02:07:48;;;;;;;1.63;1.33;;;;;;;;;;5043243;28;20053;-82
2024/01/08 02:10:14;;;;;;;1.50;1.30;;;;;;;;;;5036515;28;20056;-82
2024/01/08 02:12:41;;;;;;;1.77;1.40;;;;;;;;;;5044169;28;20061;-81
2024/01/08 02:15:07;;;;;;;1.55;1.45;;;;;;;;;;5046265;28;20040;-81
2024/01/08 02:17:34;;;;;;;2.45;1.60;;;;;;;;;;5037123;28;20045;-82
2024/01/08 02:20:00;;;;;;;2.03;1.83;;;;;;;;;;5003011;28;1164870;-81
2024/01/08 02:22:28;;;;;;;2.50;2.10;;;;;;;;;;5044060;28;20513;-81
2024/01/08 02:24:56;;;;;;;1.77;1.58;;;;;;;;;;5042610;28;20129;-82
2024/01/08 02:27:22;;;;;;;4.03;1.55;;;;;;;;;;5043586;28;20119;-82
2024/01/08 02:29:48;;;;;;;3.45;1.88;;;;;;;;;;5046383;28;20048;-82
2024/01/08 02:32:15;;;;;;;1.73;1.50;;;;;;;;;;5047239;28;20427;-82
2024/01/08 02:34:41;;;;;;;3.25;1.70;;;;;;;;;;5045118;28;20041;-82
2024/01/08 02:37:07;;;;;;;2.00;1.80;;;;;;;;;;5043675;28;20412;-81
2024/01/08 02:39:34;;;;;;;1.45;1.35;;;;;;;;;;5044505;28;20045;-82
2024/01/08 02:42:02;;;;;;;1.85;1.42;;;;;;;;;;5046997;28;20041;-81
2024/01/08 02:44:28;;;;;;;1.40;1.30;;;;;;;;;;5047470;28;20404;-82
2024/01/08 02:46:54;;;;;;;2.05;1.40;;;;;;;;;;5040667;28;20053;-82
2024/01/08 02:49:21;;;;;;;2.03;1.77;;;;;;;;;;5049655;28;20049;-84
2024/01/08 02:51:47;;;;;;;2.60;1.60;;;;;;;;;;5044749;28;20049;-83
2024/01/08 02:54:13;;;;;;;2.17;1.65;;;;;;;;;;5044052;28;20405;-83
2024/01/08 02:56:40;;;;;;;2.53;1.60;;;;;;;;;;5044553;28;20045;-83
2024/01/08 02:59:08;;;;;;;2.10;1.88;;;;;;;;;;5047582;28;20132;-81
2024/01/08 03:01:36;;;;;;;1.98;1.73;;;;;;;;;;5046538;28;20048;-82
2024/01/08 03:04:02;;;;;;;1.45;1.30;;;;;;;;;;5043831;28;20096;-81
2024/01/08 03:06:28;;;;;;;1.45;1.30;;;;;;;;;;5043733;28;20057;-81
2024/01/08 03:08:55;;;;;;;2.33;1.50;;;;;;;;;;5040144;28;20059;-81
2024/01/08 03:11:22;;;;;;;2.03;1.52;;;;;;;;;;5038868;28;20480;-81
2024/01/08 03:13:48;;;;;;;2.45;1.80;;;;;;;;;;5042093;28;20054;-81
2024/01/08 03:16:18;;;;;;;3.22;1.50;;;;;;;;;;5041801;28;20045;-81
2024/01/08 03:18:44;;;;;;;2.70;1.45;;;;;;;;;;5043850;28;20045;-81
2024/01/08 03:21:11;;;;;;;2.58;1.52;;;;;;;;;;5042697;28;20060;-82
2024/01/08 03:23:37;;;;;;;2.00;1.60;;;;;;;;;;5043969;28;20045;-81
2024/01/08 03:26:04;;;;;;;1.85;1.55;;;;;;;;;;5036082;28;20420;-81
2024/01/08 03:28:30;;;;;;;1.98;1.63;;;;;;;;;;5042641;28;20045;-81
2024/01/08 03:30:56;;;;;;;2.22;1.65;;;;;;;;;;5045750;28;20045;-81
2024/01/08 03:33:24;;;;;;;4.05;1.85;;;;;;;;;;5039926;28;20041;-81
2024/01/08 03:35:50;;;;;;;2.20;1.75;;;;;;;;;;5044514;28;20511;-82
2024/01/08 03:38:17;;;;;;;1.95;1.55;;;;;;;;;;5045748;28;20056;-82
2024/01/08 03:40:44;;;;;;;2.25;1.65;;;;;;;;;;5044349;28;20049;-82
2024/01/08 03:43:12;;;;;;;2.53;1.42;;;;;;;;;;5042619;28;20045;-81
2024/01/08 03:45:38;;;;;;;2.17;1.50;;;;;;;;;;5037966;28;20523;-81
2024/01/08 03:48:05;;;;;;;3.67;1.90;;;;;;;;;;5036042;28;20049;-81
2024/01/08 03:50:35;;;;;;;1.92;1.60;;;;;;;;;;5043029;28;20071;-81
2024/01/08 03:53:01;;;;;;;2.15;1.58;;;;;;;;;;5045964;28;20095;-82
2024/01/08 03:55:27;;;;;;;2.13;1.80;;;;;;;;;;5046141;28;20051;-81
2024/01/08 03:57:54;;;;;;;2.88;1.35;;;;;;;;;;5035644;28;20049;-81
2024/01/08 04:00:20;;;;;;;3.35;1.48;;;;;;;;;;5042997;28;20448;-81
2024/01/08 04:02:47;;;;;;;1.75;1.45;;;;;;;;;;5045105;28;20052;-81
2024/01/08 04:05:13;;;;;;;2.05;1.50;;;;;;;;;;5046303;28;20126;-82
2024/01/08 04:07:41;;;;;;;2.72;1.40;;;;;;;;;;5044496;28;20059;-84
2024/01/08 04:10:08;;;;;;;1.35;1.25;;;;;;;;;;5043761;28;20058;-81
2024/01/08 04:12:34;;;;;;;2.63;1.38;;;;;;;;;;5044562;28;20049;-82
2024/01/08 04:15:01;;;;;;;2.05;1.48;;;;;;;;;;5043769;28;20056;-81
2024/01/08 04:17:28;;;;;;;2.50;1.65;;;;;;;;;;5043902;28;20053;-81
2024/01/08 04:19:54;;;;;;;2.25;2.00;;;;;;;;;;5039689;28;20049;-81
2024/01/08 04:22:20;;;;;;;1.48;1.30;;;;;;;;;;5048302;28;20052;-82
2024/01/08 04:24:48;;;;;;;2.70;1.23;;;;;;;;;;5045234;28;20544;-82
2024/01/08 04:27:14;;;;;;;1.70;1.40;;;;;;;;;;5043392;28;20049;-82
2024/01/08 04:29:41;;;;;;;1.83;1.30;;;;;;;;;;5046468;28;20045;-84
2024/01/08 04:32:07;;;;;;;1.30;1.20;;;;;;;;;;5048767;28;20049;-82
2024/01/08 04:34:33;;;;;;;1.40;1.17;;;;;;;;;;5048801;28;20113;-83
2024/01/08 04:37:00;;;;;;;2.33;1.40;;;;;;;;;;5047690;28;20041;-84
2024/01/08 04:39:26;;;;;;;1.30;1.20;;;;;;;;;;5045498;28;20052;-82
2024/01/08 04:41:54;;;;;;;1.77;1.63;;;;;;;;;;5044526;28;20045;-84
2024/01/08 04:44:20;;;;;;;2.38;1.20;;;;;;;;;;5044737;28;20040;-81
2024/01/08 04:46:47;;;;;;;1.35;1.17;;;;;;;;;;5042257;28;20049;-81
2024/01/08 04:49:13;;;;;;;2.67;1.52;;;;;;;;;;5041089;28;20045;-82
2024/01/08 04:51:40;;;;;;;2.70;1.55;;;;;;;;;;5042419;28;20493;-82
2024/01/08 04:54:08;;;;;;;2.47;1.33;;;;;;;;;;5044278;28;20041;-83
2024/01/08 04:56:35;;;;;;;1.42;1.30;;;;;;;;;;5043378;28;20393;-83
2024/01/08 04:59:03;;;;;;;1.92;1.10;;;;;;;;;;5040989;28;20136;-81
2024/01/08 05:01:29;;;;;;;2.50;1.42;;;;;;;;;;5040929;28;20103;-81
2024/01/08 05:03:56;;;;;;;2.75;1.25;;;;;;;;;;5044652;28;20049;-83
2024/01/08 05:06:22;;;;;;;1.25;1.15;;;;;;;;;;5043904;28;20111;-81
2024/01/08 05:08:49;;;;;;;1.60;1.38;;;;;;;;;;5037602;28;20479;-81
2024/01/08 05:11:15;;;;;;;2.45;1.50;;;;;;;;;;5038152;28;20058;-81
2024/01/08 05:13:41;;;;;;;2.47;1.33;;;;;;;;;;5041852;28;20047;-81
2024/01/08 05:16:10;;;;;;;1.83;1.60;;;;;;;;;;5043131;28;20484;-81
2024/01/08 05:18:36;;;;;;;2.22;1.50;;;;;;;;;;5042486;28;20160;-81
2024/01/08 05:21:03;;;;;;;2.88;1.25;;;;;;;;;;5040900;28;20045;-81
2024/01/08 05:23:29;;;;;;;1.55;1.40;;;;;;;;;;5040295;28;20413;-81
2024/01/08 05:25:58;;;;;;;1.30;1.20;;;;;;;;;;5044820;28;20566;-81
2024/01/08 05:28:25;;;;;;;1.30;1.20;;;;;;;;;;5036636;28;20064;-81
2024/01/08 05:30:51;;;;;;;1.58;1.27;;;;;;;;;;5043676;28;20051;-81
2024/01/08 05:33:20;;;;;;;2.85;1.30;;;;;;;;;;5043878;28;20049;-81
2024/01/08 05:35:46;;;;;;;2.65;1.27;;;;;;;;;;5041122;28;20053;-82
2024/01/08 05:38:17;;;;;;;2.85;1.63;;;;;;;;;;5040387;28;20049;-83
2024/01/08 05:40:44;;;;;;;2.67;2.25;;;;;;;;;;5042352;28;20052;-83
2024/01/08 05:43:10;;;;;;;1.60;1.50;;;;;;;;;;5040865;28;20050;-82
2024/01/08 05:45:36;;;;;;;2.17;1.60;;;;;;;;;;5041544;28;20050;-82
2024/01/08 05:48:03;;;;;;;2.03;1.40;;;;;;;;;;5046098;28;20140;-82
2024/01/08 05:50:31;;;;;;;3.05;1.58;;;;;;;;;;5035918;28;20045;-82
2024/01/08 05:52:57;;;;;;;2.00;1.40;;;;;;;;;;5043932;28;20489;-83
2024/01/08 05:55:24;;;;;;;1.85;1.45;;;;;;;;;;5043631;28;20049;-83
2024/01/08 05:57:51;;;;;;;1.38;1.25;;;;;;;;;;5040642;28;20052;-83
2024/01/08 06:00:17;;;;;;;1.50;1.23;;;;;;;;;;5039808;28;20045;-83
2024/01/08 06:02:44;;;;;;;6.88;2.17;;;;;;;;;;5042741;28;20448;-83
2024/01/08 06:05:11;;;;;;;3.17;1.60;;;;;;;;;;5043717;28;20055;-83
2024/01/08 06:10:38;;;;;;;1.55;1.20;;;;;;;;;;5038268;28;20052;-82
2024/01/08 06:13:05;;;;;;;1.90;1.33;;;;;;;;;;5040686;28;20053;-83
2024/01/08 06:15:31;;;;;;;1.30;1.20;;;;;;;;;;5041034;28;20049;-82
2024/01/08 06:17:58;;;;;;;1.60;1.48;;;;;;;;;;5045692;28;20049;-82
2024/01/08 06:20:24;;;;;;;2.17;1.42;;;;;;;;;;5038506;28;20060;-82
2024/01/08 06:22:50;;;;;;;1.50;1.40;;;;;;;;;;5047006;28;20048;-83
2024/01/08 06:25:17;;;;;;;2.17;1.58;;;;;;;;;;5040323;28;20045;-82
2024/01/08 06:27:44;;;;;;;1.73;1.30;;;;;;;;;;5042386;28;20055;-82
2024/01/08 06:30:11;;;;;;;1.98;1.23;;;;;;;;;;5043036;28;20590;-82
2024/01/08 06:32:38;;;;;;;2.03;1.30;;;;;;;;;;5035741;28;20088;-83
2024/01/08 06:35:04;;;;;;;1.27;1.17;;;;;;;;;;5044111;28;20041;-82
2024/01/08 06:37:31;;;;;;;1.77;1.50;;;;;;;;;;5043117;28;20053;-82
2024/01/08 06:39:57;;;;;;;2.33;1.35;;;;;;;;;;5040577;28;20049;-83
2024/01/08 06:42:23;;;;;;;2.58;1.30;;;;;;;;;;5040571;28;20051;-83
2024/01/08 06:44:51;;;;;;;1.40;1.30;;;;;;;;;;5042307;28;20523;-83
2024/01/08 06:47:18;;;;;;;2.40;1.35;;;;;;;;;;5040703;28;20046;-83
2024/01/08 06:49:45;;;;;;;1.60;1.50;;;;;;;;;;5044347;28;20292;-83
2024/01/08 06:52:11;;;;;;;1.60;1.40;;;;;;;;;;5042390;28;20041;-83
2024/01/08 06:54:38;;;;;;;1.85;1.35;;;;;;;;;;5045810;28;20049;-83
2024/01/08 06:57:04;;;;;;;3.05;2.28;;;;;;;;;;5038684;28;20053;-82
2024/01/08 06:59:31;;;;;;;2.17;1.63;;;;;;;;;;5046935;28;20107;-82
2024/01/08 07:01:58;;;;;;;1.50;1.40;;;;;;;;;;5051897;28;20056;-83
2024/01/08 07:04:25;;;;;;;1.67;1.30;;;;;;;;;;5056140;28;20072;-82
2024/01/08 07:06:51;;;;;;;2.75;1.77;;;;;;;;;;5055132;28;20063;-83
2024/01/08 07:09:17;;;;;;;2.38;1.40;;;;;;;;;;5054773;28;20053;-83
2024/01/08 07:11:44;;;;;;;1.75;1.30;;;;;;;;;;5053523;28;20128;-83
2024/01/08 07:14:10;;;;;;;5.85;3.50;;;;;;;;;;5051580;28;20049;-83
2024/01/08 07:16:37;;;;;;;2.53;1.75;;;;;;;;;;5048532;28;20053;-83
2024/01/08 07:19:05;;;;;;;3.05;2.38;;;;;;;;;;5046916;28;20045;-83
2024/01/08 07:21:31;;;;;;;2.97;1.50;;;;;;;;;;5046970;28;20053;-83
2024/01/08 07:23:58;;;;;;;1.67;1.40;;;;;;;;;;5043439;28;20475;-82
2024/01/08 07:26:25;;;;;;;3.05;1.63;;;;;;;;;;5043457;28;20065;-83
2024/01/08 07:28:51;;;;;;;1.80;1.33;;;;;;;;;;5046894;28;20049;-83
2024/01/08 07:31:16;;;;;;;2.78;2.03;;;;;;;;;;5047364;28;20045;-83
2024/01/08 07:33:43;;;;;;;2.33;1.80;;;;;;;;;;5045666;28;20066;-84
2024/01/08 07:36:11;;;;;;;1.75;1.65;;;;;;;;;;5043271;28;20055;-83
2024/01/08 07:38:37;;;;;;;2.72;1.95;;;;;;;;;;5043940;28;20071;-83
2024/01/08 07:41:06;;;;;;;4.55;1.73;;;;;;;;;;5036669;28;20042;-83
2024/01/08 07:43:33;;;;;;;2.45;1.95;;;;;;;;;;5043354;28;20420;-83
2024/01/08 07:45:59;;;;;;;1.70;1.50;;;;;;;;;;5040363;28;20060;-83
2024/01/08 07:48:26;;;;;;;2.97;1.60;;;;;;;;;;5047235;28;20053;-83
2024/01/08 07:50:52;;;;;;;2.92;1.77;;;;;;;;;;5043743;28;20052;-84
2024/01/08 07:53:20;;;;;;;2.10;1.60;;;;;;;;;;5044160;28;20048;-83
2024/01/08 07:55:46;;;;;;;1.85;1.63;;;;;;;;;;5045811;28;20055;-83
2024/01/08 07:58:14;;;;;;;2.55;1.50;;;;;;;;;;5047062;28;20052;-84
2024/01/08 08:00:40;;;;;;;1.60;1.42;;;;;;;;;;5044606;28;20072;-83
2024/01/08 08:03:07;;;;;;;2.58;1.55;;;;;;;;;;5044095;28;20472;-83
2024/01/08 08:05:33;;;;;;;1.40;1.30;;;;;;;;;;5044616;28;20046;-83
2024/01/08 08:08:00;;;;;;;2.08;1.33;;;;;;;;;;5047809;28;20056;-83
2024/01/08 08:10:27;;;;;;;1.90;1.50;;;;;;;;;;5047928;28;20122;-83
2024/01/08 08:12:55;;;;;;;1.92;1.50;;;;;;;;;;5044104;28;20045;-83
2024/01/08 08:15:21;;;;;;;1.92;1.35;;;;;;;;;;5044356;28;20512;-84
2024/01/08 08:17:49;;;;;;;1.73;1.30;;;;;;;;;;5044684;28;20600;-84
2024/01/08 08:20:15;;;;;;;3.70;1.70;;;;;;;;;;5037007;28;20056;-82
2024/01/08 08:22:42;;;;;;;2.13;1.45;;;;;;;;;;5034314;28;20053;-84
2024/01/08 08:25:08;;;;;;;1.73;1.38;;;;;;;;;;5043526;28;20559;-82
2024/01/08 08:27:36;;;;;;;2.28;1.40;;;;;;;;;;5046835;28;20068;-82
2024/01/08 08:30:03;;;;;;;1.67;1.55;;;;;;;;;;5046547;28;20063;-82
2024/01/08 08:32:29;;;;;;;2.53;1.48;;;;;;;;;;5043193;28;20050;-83
2024/01/08 08:34:56;;;;;;;1.85;1.40;;;;;;;;;;5040925;28;20148;-83
2024/01/08 08:37:22;;;;;;;10.23;6.00;;;;;;;;;;5042494;28;20049;-83
2024/01/08 08:39:49;;;;;;;5.05;3.42;;;;;;;;;;5043705;28;20048;-83
2024/01/08 08:42:15;;;;;;;2.00;1.40;;;;;;;;;;5043741;28;20500;-83
2024/01/08 08:44:43;;;;;;;2.15;1.45;;;;;;;;;;5044800;28;20108;-84
2024/01/08 08:47:10;;;;;;;3.38;2.10;;;;;;;;;;5044347;28;20055;-83
2024/01/08 08:49:36;;;;;;;2.28;1.83;;;;;;;;;;5045946;28;20063;-85
2024/01/08 08:52:03;;;;;;;2.33;1.30;;;;;;;;;;5051062;28;20051;-82
2024/01/08 08:54:29;;;;;;;1.80;1.38;;;;;;;;;;5046488;28;20048;-82
2024/01/08 08:56:56;;;;;;;2.60;1.55;;;;;;;;;;5033768;28;20548;-82
2024/01/08 08:59:22;;;;;;;2.13;1.50;;;;;;;;;;5041956;28;20049;-78
2024/01/08 09:01:51;;;;;;;2.42;1.63;;;;;;;;;;5042650;28;20314;-80
2024/01/08 09:04:17;;;;;;;1.60;1.38;;;;;;;;;;5042043;28;20064;-80
2024/01/08 09:06:44;;;;;;;2.00;1.50;;;;;;;;;;5044982;28;20052;-80
2024/01/08 09:09:11;;;;;;;2.63;1.67;;;;;;;;;;5047422;28;20071;-79
2024/01/08 09:11:38;;;;;;;3.28;1.85;;;;;;;;;;5045562;28;20099;-78
2024/01/08 09:14:05;;;;;;;2.10;1.75;;;;;;;;;;5046299;28;20053;-78
2024/01/08 09:16:31;;;;;;;2.30;1.90;;;;;;;;;;5042184;28;20042;-78
2024/01/08 09:18:59;;;;;;;2.25;1.60;;;;;;;;;;5043964;28;20052;-79
2024/01/08 09:21:25;;;;;;;3.67;2.13;;;;;;;;;;5047436;28;20055;-80
2024/01/08 09:23:52;;;;;;;2.55;1.73;;;;;;;;;;5045684;28;20053;-78
2024/01/08 09:26:18;;;;;;;2.92;1.83;;;;;;;;;;5032831;28;20050;-78
2024/01/08 09:28:45;;;;;;;2.53;1.50;;;;;;;;;;5038987;28;20493;-78
2024/01/08 09:31:11;;;;;;;3.72;1.50;;;;;;;;;;5041677;28;20083;-79
2024/01/08 09:33:38;;;;;;;1.98;1.48;;;;;;;;;;5040953;28;20055;-79
2024/01/08 09:36:06;;;;;;;2.33;1.80;;;;;;;;;;5041693;28;20501;-78
2024/01/08 09:38:32;;;;;;;2.15;1.55;;;;;;;;;;5037655;28;20389;-78
2024/01/08 09:40:59;;;;;;;3.80;2.10;;;;;;;;;;5033650;28;20053;-78
2024/01/08 09:43:26;;;;;;;3.58;2.10;;;;;;;;;;5042341;28;20041;-78
2024/01/08 09:46:00;;;;;;;3.08;1.77;;;;;;;;;;5040428;28;20071;-78
2024/01/08 09:48:27;;;;;;;3.13;2.45;;;;;;;;;;5039398;28;20044;-78
2024/01/08 09:50:53;;;;;;;3.33;2.17;;;;;;;;;;5039466;28;20057;-78
2024/01/08 09:53:21;;;;;;;5.00;2.58;;;;;;;;;;5039466;28;20053;-78
2024/01/08 09:55:47;;;;;;;5.35;2.80;;;;;;;;;;5040410;28;20073;-78
2024/01/08 09:58:14;;;;;;;4.25;2.45;;;;;;;;;;5042755;28;20041;-78
2024/01/08 10:00:42;;;;;;;3.63;2.45;;;;;;;;;;5039600;28;20115;-78
2024/01/08 10:03:09;;;;;;;2.38;2.17;;;;;;;;;;5039507;28;20054;-78
2024/01/08 10:05:36;;;;;;;4.35;2.22;;;;;;;;;;5040481;28;20046;-78
2024/01/08 10:08:03;;;;;;;3.65;2.58;;;;;;;;;;5039302;28;20049;-78
2024/01/08 10:10:30;;;;;;;3.20;1.95;;;;;;;;;;5045888;28;20124;-78
2024/01/08 10:12:57;;;;;;;2.55;2.03;;;;;;;;;;5038977;28;20053;-78
2024/01/08 10:15:23;;;;;;;3.45;2.50;;;;;;;;;;5039591;28;20136;-79
2024/01/08 10:17:51;;;;;;;3.05;2.25;;;;;;;;;;5033488;28;20077;-79
2024/01/08 10:20:17;;;;;;;3.22;2.45;;;;;;;;;;5031106;28;20049;-78
2024/01/08 10:22:45;;;;;;;3.55;2.30;;;;;;;;;;5030935;28;20052;-79
2024/01/08 10:25:11;;;;;;;5.03;2.67;;;;;;;;;;5033296;28;20051;-79
2024/01/08 10:27:39;;;;;;;2.92;2.60;;;;;;;;;;5037004;28;20060;-79
2024/01/08 10:30:06;;;;;;;3.72;2.20;;;;;;;;;;5034693;28;20192;-78
2024/01/08 10:32:33;;;;;;;4.13;2.55;;;;;;;;;;5045738;28;20088;-79
2024/01/08 10:34:59;;;;;;;4.78;2.70;;;;;;;;;;5034530;28;20132;-78
2024/01/08 10:37:27;;;;;;;3.97;2.45;;;;;;;;;;5034279;28;20096;-79
2024/01/08 10:39:54;;;;;;;4.00;2.60;;;;;;;;;;5042804;28;20197;-78
2024/01/08 10:42:20;;;;;;;4.30;2.70;;;;;;;;;;5042739;28;20049;-78
2024/01/08 10:44:49;;;;;;;3.42;2.45;;;;;;;;;;5049690;28;20166;-79
2024/01/08 10:47:16;;;;;;;3.30;2.35;;;;;;;;;;5040340;28;20141;-79
2024/01/08 10:49:44;;;;;;;4.28;2.88;;;;;;;;;;5041904;28;20633;-79
2024/01/08 10:52:16;;;;;;;3.92;2.63;;;;;;;;;;5042421;28;20056;-79
2024/01/08 10:54:51;;;;;;;4.60;2.67;;;;;;;;;;5042565;28;20049;-79
2024/01/08 10:57:18;;;;;;;4.50;2.78;;;;;;;;;;5042520;28;20045;-79
2024/01/08 10:59:45;;;;;;;3.72;2.42;;;;;;;;;;5044639;28;20050;-79
2024/01/08 11:02:16;;;;;;;4.20;2.33;;;;;;;;;;5040093;28;20095;-79
2024/01/08 11:04:43;;;;;;;3.95;2.53;;;;;;;;;;5044147;28;20046;-79
2024/01/08 11:07:11;;;;;;;6.63;3.78;;;;;;;;;;5048603;28;20060;-79
2024/01/08 11:09:38;;;;;;;3.78;3.10;;;;;;;;;;5042976;28;20054;-79
2024/01/08 11:12:05;;;;;;;3.92;2.50;;;;;;;;;;5041866;28;20052;-79
2024/01/08 11:14:31;;;;;;;4.57;2.70;;;;;;;;;;5042190;28;20049;-79
2024/01/08 11:16:58;;;;;;;4.40;3.70;;;;;;;;;;5041934;28;20084;-79
2024/01/08 11:19:27;;;;;;;3.80;2.78;;;;;;;;;;5038399;28;20276;-80
2024/01/08 11:22:08;;;;;;;5.68;3.17;;;;;;;;;;5041701;28;20052;-79
2024/01/08 11:24:35;;;;;;;3.75;2.60;;;;;;;;;;5042499;28;20064;-79
2024/01/08 11:27:02;;;;;;;3.63;2.45;;;;;;;;;;5045367;28;20045;-79
2024/01/08 11:29:28;;;;;;;2.70;2.35;;;;;;;;;;5046514;28;20611;-79
2024/01/08 11:32:09;;;;;;;3.22;2.22;;;;;;;;;;5037004;28;20172;-79
2024/01/08 11:34:53;;;;;;;3.17;2.38;;;;;;;;;;5045225;28;20052;-79
2024/01/08 11:37:30;;;;;;;2.65;2.28;;;;;;;;;;5042004;28;20060;-79
2024/01/08 11:39:56;;;;;;;4.22;2.63;;;;;;;;;;5040497;28;20053;-79
2024/01/08 11:42:23;;;;;;;3.97;2.58;;;;;;;;;;5048565;28;20047;-79
2024/01/08 11:44:50;;;;;;;3.17;2.00;;;;;;;;;;5042973;28;20045;-79
2024/01/08 11:47:17;;;;;;;2.97;2.00;;;;;;;;;;5044597;28;20053;-79
2024/01/08 11:49:43;;;;;;;3.45;2.30;;;;;;;;;;5043303;28;20050;-79
2024/01/08 11:52:11;;;;;;;5.40;2.25;;;;;;;;;;5043409;28;20418;-79
2024/01/08 11:54:38;;;;;;;3.53;2.40;;;;;;;;;;5044610;28;20045;-79
2024/01/08 11:57:05;;;;;;;3.83;2.50;;;;;;;;;;5046342;28;20136;-79
2024/01/08 11:59:32;;;;;;;3.40;2.28;;;;;;;;;;5038407;28;20441;-79
2024/01/08 12:02:08;;;;;;;3.20;2.33;;;;;;;;;;5043478;28;20432;-79
2024/01/08 12:04:35;;;;;;;4.15;2.45;;;;;;;;;;5044249;28;20056;-79
2024/01/08 12:07:02;;;;;;;4.35;3.20;;;;;;;;;;5046532;28;20199;-79
2024/01/08 12:09:32;;;;;;;4.32;2.45;;;;;;;;;;5047222;28;20232;-79
2024/01/08 12:12:05;;;;;;;4.45;2.80;;;;;;;;;;5042640;28;20052;-80
2024/01/08 12:14:31;;;;;;;3.88;2.85;;;;;;;;;;5037900;28;20049;-79
2024/01/08 12:16:58;;;;;;;3.05;2.75;;;;;;;;;;5047049;28;20150;-79
2024/01/08 12:19:35;;;;;;;2.88;2.28;;;;;;;;;;5047496;28;20083;-80
2024/01/08 12:22:02;;;;;;;3.28;2.20;;;;;;;;;;5036986;28;20057;-79
2024/01/08 12:24:28;;;;;;;3.70;2.50;;;;;;;;;;5042987;28;20049;-79
2024/01/08 12:27:02;;;;;;;5.40;2.10;;;;;;;;;;5038170;28;20040;-79
2024/01/08 12:29:28;;;;;;;3.45;1.88;;;;;;;;;;5045484;28;20497;-79
2024/01/08 12:31:58;;;;;;;2.53;1.95;;;;;;;;;;5041827;28;20046;-79
2024/01/08 12:34:27;;;;;;;3.05;2.00;;;;;;;;;;5042397;28;20071;-79
2024/01/08 12:36:53;;;;;;;2.85;2.10;;;;;;;;;;5046002;28;20052;-79
2024/01/08 12:39:20;;;;;;;3.00;2.10;;;;;;;;;;5040524;28;20046;-79
2024/01/08 12:41:46;;;;;;;3.05;1.90;;;;;;;;;;5045467;28;20041;-79
2024/01/08 12:44:14;;;;;;;3.15;1.92;;;;;;;;;;5045200;28;20049;-79
2024/01/08 12:46:40;;;;;;;2.22;1.65;;;;;;;;;;5046319;28;20056;-79
2024/01/08 12:49:07;;;;;;;2.78;1.70;;;;;;;;;;5050547;28;20051;-79
2024/01/08 12:51:33;;;;;;;3.60;1.80;;;;;;;;;;5052105;28;20060;-79
2024/01/08 12:54:00;;;;;;;3.83;2.08;;;;;;;;;;5046223;28;20144;-79
2024/01/08 12:56:26;;;;;;;2.42;1.70;;;;;;;;;;5052937;28;20049;-79
2024/01/08 12:58:52;;;;;;;4.97;2.67;;;;;;;;;;5047921;28;20055;-79
2024/01/08 13:01:20;;;;;;;6.05;2.92;;;;;;;;;;5044862;28;20530;-79
2024/01/08 13:03:46;;;;;;;4.07;2.47;;;;;;;;;;5029163;28;20045;-79
2024/01/08 13:06:13;;;;;;;4.18;2.53;;;;;;;;;;5043601;28;20139;-79
2024/01/08 13:08:40;;;;;;;2.53;1.80;;;;;;;;;;5037736;28;20095;-79
2024/01/08 13:11:06;;;;;;;4.15;2.53;;;;;;;;;;5034622;28;20053;-79
2024/01/08 13:13:32;;;;;;;4.93;2.85;;;;;;;;;;5040085;28;20069;-79
2024/01/08 13:15:59;;;;;;;4.80;2.38;;;;;;;;;;5034701;28;20049;-79
2024/01/08 13:18:26;;;;;;;3.13;2.00;;;;;;;;;;5040114;28;20045;-78
2024/01/08 13:20:53;;;;;;;5.10;2.28;;;;;;;;;;5040653;28;20098;-79
2024/01/08 13:23:19;;;;;;;4.30;2.10;;;;;;;;;;5038573;28;20041;-78
2024/01/08 13:25:46;;;;;;;3.78;1.90;;;;;;;;;;5034431;28;20045;-78
2024/01/08 13:28:12;;;;;;;3.15;1.92;;;;;;;;;;5032319;28;20045;-79
2024/01/08 13:30:38;;;;;;;3.92;2.17;;;;;;;;;;5040333;28;20432;-79
2024/01/08 13:33:05;;;;;;;3.15;2.00;;;;;;;;;;5044378;28;20045;-78
2024/01/08 13:35:33;;;;;;;3.08;2.05;;;;;;;;;;5043975;28;20067;-78
2024/01/08 13:38:00;;;;;;;2.83;1.90;;;;;;;;;;5040142;28;20053;-78
2024/01/08 13:40:28;;;;;;;4.65;2.58;;;;;;;;;;5040454;28;20489;-79
2024/01/08 13:42:55;;;;;;;3.20;2.10;;;;;;;;;;5043551;28;20306;-78
2024/01/08 13:45:21;;;;;;;3.75;2.10;;;;;;;;;;5043758;28;20053;-79
2024/01/08 13:47:49;;;;;;;4.10;2.50;;;;;;;;;;5034643;28;20048;-78
2024/01/08 13:50:15;;;;;;;3.25;2.03;;;;;;;;;;5039991;28;20052;-79
2024/01/08 13:52:43;;;;;;;3.10;2.08;;;;;;;;;;5040626;28;20051;-79
2024/01/08 13:55:10;;;;;;;4.15;2.47;;;;;;;;;;5038516;28;20045;-78
2024/01/08 13:57:37;;;;;;;4.07;2.20;;;;;;;;;;5043737;28;20127;-78
2024/01/08 14:00:05;;;;;;;3.40;2.38;;;;;;;;;;5045086;28;20111;-78
2024/01/08 14:02:32;;;;;;;3.97;2.53;;;;;;;;;;5044985;28;20049;-79
2024/01/08 14:04:58;;;;;;;3.88;2.72;;;;;;;;;;5037785;28;20049;-79
2024/01/08 14:07:24;;;;;;;11.70;5.53;;;;;;;;;;5043500;28;20141;-79
2024/01/08 14:09:52;;;;;;;5.40;3.72;;;;;;;;;;5040044;28;20045;-79
2024/01/08 14:12:18;;;;;;;4.90;2.90;;;;;;;;;;5047417;28;20055;-79
2024/01/08 14:14:45;;;;;;;5.07;3.28;;;;;;;;;;5045133;28;20049;-79
2024/01/08 14:17:12;;;;;;;3.25;2.35;;;;;;;;;;5044634;28;20056;-79
2024/01/08 14:19:38;;;;;;;6.75;3.55;;;;;;;;;;5044604;28;20049;-78
2024/01/08 14:22:05;;;;;;;6.82;3.92;;;;;;;;;;5042539;28;20493;-79
2024/01/08 14:24:31;;;;;;;6.53;3.30;;;;;;;;;;5043283;28;20398;-78
2024/01/08 14:26:59;;;;;;;5.20;2.40;;;;;;;;;;5036616;28;20081;-78
2024/01/08 14:29:26;;;;;;;4.38;2.63;;;;;;;;;;5044646;28;20045;-79
2024/01/08 14:31:52;;;;;;;3.67;2.40;;;;;;;;;;5039421;28;20083;-79
2024/01/08 14:34:19;;;;;;;5.18;2.47;;;;;;;;;;5041677;28;20051;-79
2024/01/08 14:36:45;;;;;;;3.45;2.17;;;;;;;;;;5050656;28;20048;-78
2024/01/08 14:39:12;;;;;;;3.13;1.75;;;;;;;;;;5033080;28;20489;-79
2024/01/08 14:41:38;;;;;;;4.28;2.40;;;;;;;;;;5044618;28;20049;-79
2024/01/08 14:44:06;;;;;;;3.92;2.20;;;;;;;;;;5049972;28;20045;-79